Time;durP1;ratioP1;P1;durP2;ratioP2;P2;SDS_P1;SDS_P2;PMS_P1;PMS_P2;Temp;Humidity;BMP_temperature;BMP_pressure;BME280_temperature;BME280_humidity;BME280_pressure;Samples;Min_cycle;Max_cycle;Signal;HPM_P1;HPM_P2
2023/03/04 00:01:59;;;;;;;0.97;0.50;;;;;;;7.91;100.00;95365.06;5112178;28;20463;-58
2023/03/04 00:04:27;;;;;;;0.70;0.37;;;;;;;7.54;100.00;95346.50;5111892;28;20442;-58
2023/03/04 00:06:56;;;;;;;0.60;0.50;;;;;;;7.69;100.00;95355.38;5111996;28;20431;-58
2023/03/04 00:09:24;;;;;;;1.57;1.47;;;;;;;6.57;100.00;95261.41;5112263;28;20430;-57
2023/03/04 00:11:52;;;;;;;1.23;0.73;;;;;;;7.29;100.00;95370.78;5112143;28;20502;-57
2023/03/04 00:14:21;;;;;;;1.10;1.00;;;;;;;6.97;100.00;95367.25;5111824;28;20462;-57
2023/03/04 00:16:49;;;;;;;0.97;0.97;;;;;;;6.78;100.00;95364.09;5111977;28;20449;-57
2023/03/04 00:19:19;;;;;;;0.70;0.70;;;;;;;6.74;100.00;95367.47;5112150;28;20435;-57
2023/03/04 00:21:47;;;;;;;0.40;0.30;;;;;;;6.80;100.00;95369.16;5111558;28;20474;-57
2023/03/04 00:24:16;;;;;;;1.63;0.83;;;;;;;6.23;100.00;95277.28;5111748;28;20454;-57
2023/03/04 00:26:45;;;;;;;0.63;0.50;;;;;;;6.76;100.00;95344.31;5111889;28;20427;-57
2023/03/04 00:29:13;;;;;;;0.57;0.50;;;;;;;6.74;100.00;95297.16;5112057;28;20435;-57
2023/03/04 00:31:41;;;;;;;2.30;2.20;;;;;;;7.10;100.00;95334.47;5111793;28;20427;-57
2023/03/04 00:34:10;;;;;;;1.10;1.00;;;;;;;6.51;100.00;95191.28;5111749;28;20521;-57
2023/03/04 00:36:40;;;;;;;0.90;0.60;;;;;;;7.54;100.00;95352.59;5111920;28;20426;-57
2023/03/04 00:39:08;;;;;;;0.90;0.90;;;;;;;6.97;100.00;95254.75;5111919;28;20891;-57
2023/03/04 00:41:36;;;;;;;0.30;0.20;;;;;;;6.63;100.00;95202.50;5111613;28;20494;-57
2023/03/04 00:44:05;;;;;;;0.97;0.50;;;;;;;7.79;100.00;95338.06;5111642;28;20434;-57
2023/03/04 00:46:33;;;;;;;2.77;0.50;;;;;;;7.14;100.00;95277.56;5111632;28;20424;-57
2023/03/04 00:49:02;;;;;;;0.53;0.53;;;;;;;7.24;100.00;95333.81;5111766;28;20816;-57
2023/03/04 00:51:30;;;;;;;6.23;1.10;;;;;;;5.74;100.00;95154.53;5111751;28;20864;-57
2023/03/04 00:54:00;;;;;;;0.73;0.70;;;;;;;6.84;100.00;95317.56;5111870;28;20875;-57
2023/03/04 00:56:28;;;;;;;2.20;1.60;;;;;;;6.32;100.00;95196.84;5111511;28;20481;-57
2023/03/04 00:58:56;;;;;;;0.60;0.47;;;;;;;7.23;100.00;95337.53;5111508;28;20441;-57
2023/03/04 01:01:25;;;;;;;0.63;0.63;;;;;;;7.11;100.00;95336.84;5111353;28;20504;-57
2023/03/04 01:03:53;;;;;;;0.40;0.33;;;;;;;6.11;100.00;95136.34;5111396;28;20421;-57
2023/03/04 01:06:21;;;;;;;0.40;0.30;;;;;;;7.29;100.00;95275.06;5111325;28;20430;-58
2023/03/04 01:08:50;;;;;;;0.30;0.20;;;;;;;7.74;100.00;95330.09;5111440;28;20778;-57
2023/03/04 01:11:19;;;;;;;0.30;0.30;;;;;;;7.81;100.00;95323.56;5111662;28;20427;-57
2023/03/04 01:13:48;;;;;;;1.43;0.30;;;;;;;7.80;100.00;95321.16;5111354;28;20433;-57
2023/03/04 01:16:16;;;;;;;1.03;0.93;;;;;;;7.06;100.00;95176.03;5114616;28;20451;-57
2023/03/04 01:18:46;;;;;;;0.30;0.30;;;;;;;7.92;100.00;95317.31;5115107;28;20483;-58
2023/03/04 01:21:14;;;;;;;1.17;1.07;;;;;;;7.91;100.00;95288.53;5114673;28;20481;-58
2023/03/04 01:23:43;;;;;;;0.40;0.37;;;;;;;8.34;100.00;95316.59;5115207;28;20437;-58
2023/03/04 01:26:11;;;;;;;0.30;0.27;;;;;;;8.46;100.00;95315.34;5114771;28;20425;-59
2023/03/04 01:28:41;;;;;;;0.30;0.30;;;;;;;8.42;100.00;95305.53;5115283;28;20433;-59
2023/03/04 01:31:09;;;;;;;0.50;0.40;;;;;;;7.67;100.00;95215.03;5114923;28;20451;-59
2023/03/04 01:33:37;;;;;;;0.50;0.40;;;;;;;8.02;100.00;95275.16;5115157;28;20437;-59
2023/03/04 01:36:06;;;;;;;0.40;0.40;;;;;;;7.98;100.00;95268.81;5114700;28;20444;-59
2023/03/04 01:38:35;;;;;;;0.50;0.40;;;;;;;7.96;100.00;95273.56;5114569;28;20772;-59
2023/03/04 01:41:03;;;;;;;0.30;0.20;;;;;;;8.34;100.00;95312.09;5114451;28;20463;-59
2023/03/04 01:43:32;;;;;;;0.50;0.40;;;;;;;8.23;100.00;95305.13;5114561;28;20430;-59
2023/03/04 01:46:02;;;;;;;0.80;0.80;;;;;;;8.17;100.00;95322.78;5114575;28;20434;-59
2023/03/04 01:48:35;;;;;;;0.63;0.63;;;;;;;8.10;100.00;95293.16;5114543;28;20459;-58
2023/03/04 01:51:04;;;;;;;2.00;0.60;;;;;;;8.31;100.00;95294.13;5114576;28;20434;-59
2023/03/04 01:53:33;;;;;;;2.00;0.63;;;;;;;8.49;100.00;95298.19;5114606;28;20652;-58
2023/03/04 01:56:04;;;;;;;0.40;0.40;;;;;;;8.51;100.00;95288.94;5114878;28;20861;-59
2023/03/04 01:58:33;;;;;;;0.53;0.50;;;;;;;8.47;100.00;95285.25;5114650;28;20470;-59
2023/03/04 02:01:02;;;;;;;0.40;0.30;;;;;;;8.04;100.00;95288.13;5114410;28;20476;-59
2023/03/04 02:03:31;;;;;;;2.50;2.30;;;;;;;7.93;100.00;95289.06;5113787;28;20525;-59
2023/03/04 02:05:59;;;;;;;0.40;0.30;;;;;;;7.62;100.00;95201.00;5113908;28;20429;-59
2023/03/04 02:08:28;;;;;;;0.97;0.50;;;;;;;8.32;100.00;95281.72;5113657;28;20440;-59
2023/03/04 02:10:56;;;;;;;0.60;0.60;;;;;;;8.05;100.00;95234.25;5113763;28;20426;-58
2023/03/04 02:13:25;;;;;;;1.30;1.20;;;;;;;8.32;100.00;95283.28;5113914;28;20456;-58
2023/03/04 02:15:53;;;;;;;0.50;0.40;;;;;;;8.52;100.00;95289.75;5113922;28;20442;-58
2023/03/04 02:18:24;;;;;;;0.90;0.90;;;;;;;8.48;100.00;95286.81;5113838;28;20947;-58
2023/03/04 02:21:03;;;;;;;0.70;0.70;;;;;;;7.46;100.00;95099.88;5113766;28;20473;-59
2023/03/04 02:23:39;;;;;;;2.30;0.93;;;;;;;8.78;100.00;95286.16;5113565;28;20485;-58
2023/03/04 02:26:15;;;;;;;2.60;0.30;;;;;;;8.07;100.00;95201.28;5113650;28;20910;-59
2023/03/04 02:28:44;;;;;;;1.43;0.60;;;;;;;8.21;100.00;95263.16;5113866;28;20562;-59
2023/03/04 02:31:23;;;;;;;0.63;0.63;;;;;;;7.91;100.00;95222.56;5113816;28;20422;-59
2023/03/04 02:33:54;;;;;;;1.27;1.23;;;;;;;8.37;100.00;95292.31;5113826;28;20906;-59
2023/03/04 02:36:23;;;;;;;0.73;0.73;;;;;;;8.53;100.00;95296.59;5113737;28;20488;-59
2023/03/04 02:38:53;;;;;;;0.77;0.77;;;;;;;8.43;100.00;95270.94;5113720;28;20915;-59
2023/03/04 02:41:25;;;;;;;0.77;0.77;;;;;;;8.42;100.00;95290.50;5113682;28;20844;-59
2023/03/04 02:43:55;;;;;;;0.40;0.40;;;;;;;8.60;100.00;95291.91;5113799;28;20493;-59
2023/03/04 02:46:23;;;;;;;0.30;0.30;;;;;;;8.37;100.00;95281.75;5113828;28;20435;-59
2023/03/04 02:48:52;;;;;;;0.93;0.73;;;;;;;7.94;100.00;95291.47;5113317;28;20489;-59
2023/03/04 02:51:21;;;;;;;0.90;0.87;;;;;;;7.96;100.00;95275.38;5113387;28;20826;-59
2023/03/04 02:53:49;;;;;;;0.60;0.60;;;;;;;8.24;100.00;95272.41;5113510;28;20418;-59
2023/03/04 02:56:17;;;;;;;0.50;0.30;;;;;;;7.96;100.00;95235.81;5113236;28;20548;-58
2023/03/04 02:58:47;;;;;;;1.17;0.83;;;;;;;7.89;100.00;95200.94;5113564;28;20426;-58
2023/03/04 03:01:15;;;;;;;0.53;0.50;;;;;;;8.26;100.00;95312.53;5113491;28;20445;-58
2023/03/04 03:03:44;;;;;;;1.03;1.03;;;;;;;8.09;100.00;95277.59;5112979;28;20481;-58
2023/03/04 03:06:12;;;;;;;0.37;0.30;;;;;;;7.61;100.00;95249.53;5113209;28;20453;-59
2023/03/04 03:08:40;;;;;;;0.50;0.50;;;;;;;6.82;100.00;95091.28;5112400;28;20911;-58
2023/03/04 03:11:09;;;;;;;7.10;1.10;;;;;;;7.98;100.00;95282.00;5113021;28;20450;-59
2023/03/04 03:13:37;;;;;;;1.40;1.40;;;;;;;7.59;100.00;95236.59;5113037;28;20436;-58
2023/03/04 03:16:07;;;;;;;2.20;0.50;;;;;;;7.78;100.00;95273.13;5112934;28;20442;-59
2023/03/04 03:18:35;;;;;;;3.50;0.30;;;;;;;7.73;100.00;95273.09;5112956;28;20435;-59
2023/03/04 03:21:04;;;;;;;0.30;0.30;;;;;;;7.90;100.00;95281.66;5112591;28;20471;-58
2023/03/04 03:23:32;;;;;;;2.20;0.70;;;;;;;6.76;100.00;95128.34;5113083;28;20563;-58
2023/03/04 03:26:01;;;;;;;0.40;0.30;;;;;;;7.72;100.00;95288.13;5112841;28;20433;-58
2023/03/04 03:28:29;;;;;;;0.70;0.70;;;;;;;7.54;100.00;95254.22;5113160;28;20421;-58
2023/03/04 03:30:59;;;;;;;0.90;0.90;;;;;;;7.71;100.00;95278.63;5113084;28;20438;-58
2023/03/04 03:33:28;;;;;;;0.33;0.27;;;;;;;7.83;100.00;95291.66;5112548;28;20442;-58
2023/03/04 03:35:57;;;;;;;0.77;0.77;;;;;;;7.89;100.00;95301.19;5112551;28;20542;-58
2023/03/04 03:38:25;;;;;;;0.30;0.20;;;;;;;8.10;100.00;95297.63;5111814;28;20919;-58
2023/03/04 03:40:53;;;;;;;0.40;0.40;;;;;;;8.23;100.00;95297.22;5112529;28;20444;-58
2023/03/04 03:43:22;;;;;;;0.73;0.73;;;;;;;8.40;100.00;95303.13;5112347;28;20479;-58
2023/03/04 03:45:50;;;;;;;0.70;0.50;;;;;;;7.84;100.00;95224.66;5112539;28;20518;-58
2023/03/04 03:48:19;;;;;;;0.40;0.30;;;;;;;8.44;100.00;95303.44;5112734;28;20469;-58
2023/03/04 03:50:48;;;;;;;0.57;0.53;;;;;;;8.50;100.00;95307.72;5112638;28;20423;-58
2023/03/04 03:53:17;;;;;;;0.50;0.47;;;;;;;8.25;100.00;95310.94;5112153;28;20444;-59
2023/03/04 03:55:45;;;;;;;0.50;0.50;;;;;;;8.27;100.00;95309.66;5112335;28;20435;-58
2023/03/04 03:58:13;;;;;;;0.57;0.50;;;;;;;7.38;100.00;95176.84;5112141;28;20517;-58
2023/03/04 04:00:42;;;;;;;1.47;0.60;;;;;;;8.47;100.00;95316.13;5112507;28;20441;-58
2023/03/04 04:03:14;;;;;;;0.50;0.50;;;;;;;8.55;100.00;95311.16;5112067;28;20568;-58
2023/03/04 04:05:42;;;;;;;0.60;0.60;;;;;;;8.52;100.00;95318.81;5112127;28;20427;-58
2023/03/04 04:08:13;;;;;;;2.13;0.40;;;;;;;8.61;100.00;95309.34;5112365;28;20510;-58
2023/03/04 04:10:42;;;;;;;2.10;0.70;;;;;;;8.26;100.00;95239.44;5112313;28;20432;-58
2023/03/04 04:13:10;;;;;;;7.40;0.67;;;;;;;8.69;100.00;95317.59;5112194;28;20439;-58
2023/03/04 04:15:39;;;;;;;0.40;0.30;;;;;;;8.83;100.00;95304.69;5111961;28;20470;-58
2023/03/04 04:18:08;;;;;;;0.50;0.50;;;;;;;8.69;100.00;95304.38;5110992;28;20465;-59
2023/03/04 04:20:36;;;;;;;0.53;0.50;;;;;;;8.54;100.00;95319.34;5111390;28;20458;-59
2023/03/04 04:23:05;;;;;;;0.30;0.30;;;;;;;8.60;100.00;95316.47;5111534;28;20508;-59
2023/03/04 04:28:20;;;;;;;0.80;0.80;;;;;;;8.67;100.00;95316.25;5111641;28;20461;-58
2023/03/04 04:30:48;;;;;;;0.50;0.40;;;;;;;8.09;100.00;95249.34;5111827;28;20939;-58
2023/03/04 04:33:17;;;;;;;0.40;0.33;;;;;;;8.58;100.00;95323.06;5111601;28;20418;-58
2023/03/04 04:35:45;;;;;;;1.80;1.70;;;;;;;8.64;100.00;95319.41;5111435;28;20530;-59
2023/03/04 04:38:13;;;;;;;0.40;0.40;;;;;;;8.45;100.00;95289.97;5111781;28;20465;-58
2023/03/04 04:40:43;;;;;;;1.07;0.97;;;;;;;8.61;100.00;95320.69;5110705;28;20431;-57
2023/03/04 04:43:11;;;;;;;0.40;0.30;;;;;;;8.34;100.00;95298.91;5111579;28;20525;-58
2023/03/04 04:45:40;;;;;;;0.73;0.63;;;;;;;7.64;100.00;95218.16;5111626;28;20494;-59
2023/03/04 04:48:08;;;;;;;0.40;0.20;;;;;;;8.49;100.00;95312.19;5111378;28;20431;-59
2023/03/04 04:50:36;;;;;;;0.50;0.50;;;;;;;7.25;100.00;95140.38;5115647;28;20782;-59
2023/03/04 04:53:05;;;;;;;0.40;0.40;;;;;;;8.43;100.00;95326.41;5115806;28;20417;-58
2023/03/04 04:55:34;;;;;;;0.40;0.40;;;;;;;8.54;100.00;95322.78;5115724;28;20434;-59
2023/03/04 04:58:05;;;;;;;9.30;1.00;;;;;;;8.38;100.00;95313.16;5115646;28;20547;-59
2023/03/04 05:00:34;;;;;;;0.63;0.63;;;;;;;8.47;100.00;95324.06;5115699;28;20886;-58
2023/03/04 05:03:02;;;;;;;0.70;0.70;;;;;;;8.23;100.00;95308.56;5114733;28;20510;-59
2023/03/04 05:05:31;;;;;;;0.90;0.77;;;;;;;8.33;100.00;95323.69;5114854;28;20514;-59
2023/03/04 05:07:59;;;;;;;1.20;0.80;;;;;;;8.50;100.00;95319.03;5115447;28;20444;-59
2023/03/04 05:10:27;;;;;;;0.40;0.30;;;;;;;7.53;100.00;95157.69;5114652;28;20446;-59
2023/03/04 05:12:56;;;;;;;2.10;0.60;;;;;;;8.59;100.00;95327.28;5114742;28;20462;-59
2023/03/04 05:15:25;;;;;;;0.53;0.53;;;;;;;7.52;100.00;95175.34;5114794;28;20418;-59
2023/03/04 05:17:54;;;;;;;0.50;0.50;;;;;;;8.55;100.00;95320.94;5115005;28;20431;-59
2023/03/04 05:20:24;;;;;;;1.70;0.93;;;;;;;7.63;100.00;95170.94;5114903;28;20875;-59
2023/03/04 05:22:52;;;;;;;0.50;0.50;;;;;;;8.38;100.00;95292.03;5114865;28;20947;-59
2023/03/04 05:25:21;;;;;;;0.40;0.30;;;;;;;8.41;100.00;95320.59;5115281;28;20462;-60
2023/03/04 05:27:49;;;;;;;0.40;0.30;;;;;;;7.76;100.00;95193.47;5115186;28;20458;-60
2023/03/04 05:30:18;;;;;;;1.43;0.47;;;;;;;8.68;100.00;95305.41;5115078;28;20497;-60
2023/03/04 05:32:49;;;;;;;0.67;0.67;;;;;;;8.48;100.00;95284.19;5114316;28;20440;-61
2023/03/04 05:35:17;;;;;;;0.50;0.47;;;;;;;8.32;100.00;95265.88;5114959;28;20416;-61
2023/03/04 05:37:46;;;;;;;0.80;0.80;;;;;;;8.36;100.00;95274.88;5114908;28;20500;-61
2023/03/04 05:40:14;;;;;;;0.90;0.90;;;;;;;8.78;100.00;95316.03;5115181;28;20435;-61
2023/03/04 05:42:42;;;;;;;1.47;0.53;;;;;;;8.45;100.00;95258.28;5114749;28;20433;-60
2023/03/04 05:45:11;;;;;;;0.50;0.37;;;;;;;8.40;100.00;95263.53;5115018;28;20459;-60
2023/03/04 05:47:40;;;;;;;1.40;1.33;;;;;;;8.95;100.00;95319.25;5114933;28;20453;-60
2023/03/04 05:50:11;;;;;;;0.70;0.70;;;;;;;8.57;100.00;95244.88;5114808;28;20455;-60
2023/03/04 05:52:39;;;;;;;0.90;0.90;;;;;;;8.44;100.00;95251.41;5114591;28;20517;-59
2023/03/04 05:55:09;;;;;;;0.93;0.93;;;;;;;8.86;100.00;95320.03;5114772;28;20952;-60
2023/03/04 05:57:37;;;;;;;1.00;1.00;;;;;;;8.58;100.00;95284.22;5114715;28;20427;-61
2023/03/04 06:00:08;;;;;;;2.37;1.90;;;;;;;8.73;100.00;95318.66;5114035;28;20655;-61
2023/03/04 06:02:36;;;;;;;5.13;2.00;;;;;;;8.97;100.00;95323.50;5114729;28;20797;-61
2023/03/04 06:05:06;;;;;;;1.03;1.00;;;;;;;9.15;100.00;95325.69;5114495;28;20564;-60
2023/03/04 06:07:36;;;;;;;0.53;0.50;;;;;;;8.97;100.00;95323.50;5114304;28;20463;-60
2023/03/04 06:10:06;;;;;;;1.93;1.80;;;;;;;8.74;100.00;95324.72;5114315;28;20444;-60
2023/03/04 06:12:35;;;;;;;0.90;0.90;;;;;;;7.99;100.00;95206.28;5114226;28;20439;-60
2023/03/04 06:15:04;;;;;;;0.83;0.83;;;;;;;8.86;100.00;95320.81;5113867;28;20429;-61
2023/03/04 06:17:33;;;;;;;0.70;0.70;;;;;;;8.81;100.00;95326.09;5113668;28;20432;-60
2023/03/04 06:20:01;;;;;;;0.70;0.70;;;;;;;7.35;100.00;95124.63;5113396;28;20978;-60
2023/03/04 06:22:30;;;;;;;0.90;0.90;;;;;;;7.45;100.00;95106.22;5113590;28;20525;-60
2023/03/04 06:24:59;;;;;;;1.37;1.20;;;;;;;4.32;100.00;94592.72;5113659;28;20469;-60
2023/03/04 06:27:28;;;;;;;3.40;2.27;;;;;;;8.86;100.00;95320.81;5113518;28;20445;-60
2023/03/04 06:29:56;;;;;;;1.20;0.90;;;;;;;9.02;100.00;95323.53;5114371;28;20434;-60
2023/03/04 06:32:27;;;;;;;1.07;0.97;;;;;;;8.75;100.00;95327.09;5113667;28;20463;-63
2023/03/04 06:34:56;;;;;;;1.73;1.63;;;;;;;8.39;100.00;95325.34;5114009;28;20442;-61
2023/03/04 06:37:25;;;;;;;1.13;1.13;;;;;;;8.14;100.00;95330.41;5114015;28;20435;-61
2023/03/04 06:39:53;;;;;;;9.23;2.70;;;;;;;7.98;100.00;95300.47;5113901;28;20431;-61
2023/03/04 06:42:23;;;;;;;14.23;1.77;;;;;;;8.18;100.00;95289.25;5114171;28;20805;-61
2023/03/04 06:44:51;;;;;;;1.43;1.33;;;;;;;7.13;100.00;95134.47;5113734;28;21050;-60
2023/03/04 06:47:20;;;;;;;1.13;1.13;;;;;;;4.20;100.00;94672.56;5112799;28;20429;-59
2023/03/04 06:49:48;;;;;;;1.83;1.70;;;;;;;8.60;100.00;95334.19;5113649;28;20435;-60
2023/03/04 06:52:16;;;;;;;6.00;3.43;;;;;;;7.74;100.00;95198.19;5113212;28;20664;-60
2023/03/04 06:54:44;;;;;;;1.53;1.43;;;;;;;8.64;100.00;95292.97;5113502;28;20432;-60
2023/03/04 06:57:13;;;;;;;8.17;3.13;;;;;;;8.78;100.00;95331.88;5113552;28;20522;-60
2023/03/04 06:59:43;;;;;;;2.27;2.00;;;;;;;9.13;100.00;95333.09;5113480;28;20518;-60
2023/03/04 07:02:12;;;;;;;1.60;1.50;;;;;;;8.55;100.00;95258.31;5113338;28;20432;-60
2023/03/04 07:04:40;;;;;;;1.37;0.80;;;;;;;8.63;100.00;95286.09;5113234;28;20521;-60
2023/03/04 07:07:09;;;;;;;2.00;1.90;;;;;;;8.96;100.00;95341.22;5113106;28;20432;-61
2023/03/04 07:09:37;;;;;;;6.13;1.50;;;;;;;9.27;100.00;95336.84;5113064;28;20442;-60
2023/03/04 07:12:06;;;;;;;0.93;0.90;;;;;;;9.25;100.00;95315.94;5112303;28;20502;-59
2023/03/04 07:14:34;;;;;;;0.60;0.60;;;;;;;9.39;100.00;95326.81;5112848;28;20424;-59
2023/03/04 07:17:04;;;;;;;0.60;0.60;;;;;;;9.67;100.00;95328.97;5112471;28;20843;-58
2023/03/04 07:19:33;;;;;;;1.43;1.33;;;;;;;9.81;100.00;95340.66;5112975;28;20963;-59
2023/03/04 07:22:01;;;;;;;1.97;1.90;;;;;;;8.76;100.00;95238.88;5113402;28;20477;-59
2023/03/04 07:24:31;;;;;;;1.37;1.27;;;;;;;9.63;100.00;95338.53;5112643;28;20478;-59
2023/03/04 07:26:59;;;;;;;1.10;1.10;;;;;;;9.51;100.00;95336.09;5112382;28;20436;-59
2023/03/04 07:29:28;;;;;;;1.00;1.00;;;;;;;9.44;100.00;95332.13;5113329;28;20438;-59
2023/03/04 07:31:56;;;;;;;2.43;2.33;;;;;;;9.94;100.00;95342.00;5112822;28;20427;-59
2023/03/04 07:34:26;;;;;;;3.87;3.67;;;;;;;9.68;100.00;95340.38;5112475;28;20424;-59
2023/03/04 07:36:57;;;;;;;0.80;0.80;;;;;;;9.29;100.00;95322.28;5112796;28;20455;-59
2023/03/04 07:39:26;;;;;;;2.20;2.10;;;;;;;9.01;100.00;95309.50;5112696;28;20428;-59
2023/03/04 07:41:54;;;;;;;3.60;1.07;;;;;;;9.31;100.00;95336.03;5112272;28;20428;-59
2023/03/04 07:44:23;;;;;;;1.90;1.80;;;;;;;9.21;100.00;95319.38;5112670;28;20435;-59
2023/03/04 07:46:51;;;;;;;0.60;0.50;;;;;;;9.34;100.00;95297.69;5112676;28;20454;-59
2023/03/04 07:49:20;;;;;;;0.50;0.50;;;;;;;9.18;100.00;95294.25;5112555;28;20776;-59
2023/03/04 07:51:49;;;;;;;0.67;0.67;;;;;;;9.41;100.00;95345.88;5112253;28;20420;-59
2023/03/04 07:54:19;;;;;;;2.00;1.10;;;;;;;9.38;100.00;95347.19;5112187;28;20851;-59
2023/03/04 07:56:50;;;;;;;1.17;1.07;;;;;;;9.61;100.00;95343.28;5111591;28;20435;-58
2023/03/04 07:59:18;;;;;;;0.60;0.60;;;;;;;9.78;100.00;95346.47;5112179;28;20435;-59
2023/03/04 08:01:46;;;;;;;0.63;0.63;;;;;;;9.77;100.00;95403.09;5111822;28;20462;-58
2023/03/04 08:04:15;;;;;;;0.77;0.77;;;;;;;8.46;100.00;95143.66;5111958;28;20498;-58
2023/03/04 08:06:43;;;;;;;4.10;0.67;;;;;;;9.68;100.00;95343.81;5112129;28;20467;-58
2023/03/04 08:09:13;;;;;;;0.60;0.60;;;;;;;9.84;100.00;95340.09;5112247;28;20519;-58
2023/03/04 08:11:42;;;;;;;0.87;0.60;;;;;;;9.90;100.00;95341.72;5111221;28;20507;-58
2023/03/04 08:14:11;;;;;;;0.70;0.70;;;;;;;9.49;100.00;95218.38;5112142;28;20514;-58
2023/03/04 08:16:40;;;;;;;0.83;0.50;;;;;;;10.19;100.00;95348.09;5112333;28;20438;-57
2023/03/04 08:19:09;;;;;;;0.50;0.50;;;;;;;8.90;100.00;95173.09;5112080;28;20947;-59
2023/03/04 08:21:37;;;;;;;0.50;0.50;;;;;;;10.34;100.00;95349.16;5111976;28;20472;-57
2023/03/04 08:24:07;;;;;;;2.40;0.80;;;;;;;9.69;100.00;95348.03;5111945;28;20438;-57
2023/03/04 08:26:40;;;;;;;5.10;0.70;;;;;;;8.42;100.00;95161.09;5111216;28;20477;-57
2023/03/04 08:29:11;;;;;;;2.10;1.27;;;;;;;9.49;100.00;95330.28;5112020;28;20416;-57
2023/03/04 08:31:39;;;;;;;1.00;1.00;;;;;;;9.59;100.00;95335.59;5112204;28;20523;-57
2023/03/04 08:34:09;;;;;;;3.00;2.80;;;;;;;9.28;100.00;95331.31;5111950;28;20943;-57
2023/03/04 08:36:37;;;;;;;3.00;2.80;;;;;;;9.23;100.00;95338.41;5111841;28;20428;-57
2023/03/04 08:39:06;;;;;;;2.63;2.53;;;;;;;8.53;100.00;95249.06;5112121;28;20431;-58
2023/03/04 08:41:35;;;;;;;1.87;1.53;;;;;;;9.63;100.00;95340.34;5112153;28;20799;-58
2023/03/04 08:44:07;;;;;;;4.43;1.53;;;;;;;9.67;100.00;95339.56;5112267;28;20451;-58
2023/03/04 08:46:35;;;;;;;1.03;0.93;;;;;;;10.03;100.00;95333.25;5111791;28;21005;-58
2023/03/04 08:49:03;;;;;;;3.20;2.90;;;;;;;9.69;100.00;95273.16;5111707;28;20834;-58
2023/03/04 08:51:32;;;;;;;3.03;2.83;;;;;;;9.76;100.00;95308.91;5111889;28;20423;-59
2023/03/04 08:54:00;;;;;;;1.20;1.13;;;;;;;10.01;100.00;95332.72;5112091;28;20515;-59
2023/03/04 08:56:28;;;;;;;4.50;1.13;;;;;;;10.29;100.00;95293.53;5112058;28;20424;-59
2023/03/04 08:58:57;;;;;;;1.70;1.60;;;;;;;10.14;100.00;95244.03;5110500;28;20436;-59
2023/03/04 09:01:27;;;;;;;1.53;1.40;;;;;;;10.79;100.00;95319.91;5111807;28;20507;-59
2023/03/04 09:03:55;;;;;;;0.73;0.73;;;;;;;11.23;100.00;95314.72;5111772;28;20428;-59
2023/03/04 09:06:23;;;;;;;1.47;1.37;;;;;;;10.97;100.00;95316.69;5111745;28;20464;-60
2023/03/04 09:08:52;;;;;;;0.73;0.73;;;;;;;11.12;100.00;95258.25;5111567;28;20971;-60
2023/03/04 09:11:20;;;;;;;1.13;1.10;;;;;;;10.82;100.00;95290.22;5111672;28;20431;-59
2023/03/04 09:13:50;;;;;;;1.10;1.10;;;;;;;10.60;100.00;95269.34;5111576;28;20467;-60
2023/03/04 09:16:18;;;;;;;3.80;2.93;;;;;;;11.02;100.00;95292.78;5111563;28;20427;-60
2023/03/04 09:18:48;;;;;;;0.43;0.40;;;;;;;11.56;100.00;95313.22;5111343;28;20411;-59
2023/03/04 09:21:16;;;;;;;1.33;1.23;;;;;;;11.17;100.00;95313.94;5111186;28;20478;-59
2023/03/04 09:23:45;;;;;;;4.13;0.73;;;;;;;11.46;100.00;95298.13;5111602;28;20502;-59
2023/03/04 09:26:15;;;;;;;0.60;0.60;;;;;;;10.68;100.00;95205.19;5111406;28;20493;-58
2023/03/04 09:28:43;;;;;;;0.50;0.37;;;;;;;11.63;100.00;95306.53;5111683;28;20478;-58
2023/03/04 09:31:13;;;;;;;0.63;0.63;;;;;;;11.72;99.21;95290.81;5111377;28;20507;-59
2023/03/04 09:33:42;;;;;;;1.00;1.00;;;;;;;10.77;100.00;95239.88;5110193;28;20443;-59
2023/03/04 09:36:13;;;;;;;2.43;2.33;;;;;;;11.02;99.98;95308.72;5113180;28;20432;-59
2023/03/04 09:38:42;;;;;;;0.50;0.50;;;;;;;11.31;100.00;95299.00;5115178;28;20560;-59
2023/03/04 09:41:17;;;;;;;1.13;0.70;;;;;;;11.57;97.62;95297.00;5115220;28;20439;-61
2023/03/04 09:43:46;;;;;;;1.03;0.93;;;;;;;11.51;100.00;95284.03;5115231;28;20427;-60
2023/03/04 09:46:19;;;;;;;0.70;0.70;;;;;;;11.45;96.44;95252.22;5115169;28;20983;-60
2023/03/04 09:48:50;;;;;;;0.43;0.30;;;;;;;11.86;92.50;95281.97;5114874;28;20515;-60
2023/03/04 09:51:22;;;;;;;1.60;1.50;;;;;;;11.94;90.17;95289.31;5115135;28;20453;-60
2023/03/04 09:54:05;;;;;;;0.60;0.60;;;;;;;11.77;91.88;95298.75;5114355;28;20527;-60
2023/03/04 09:56:35;;;;;;;1.47;1.37;;;;;;;10.81;92.28;95142.81;5114954;28;20508;-60
2023/03/04 09:59:15;;;;;;;0.90;0.90;;;;;;;11.65;92.73;95279.69;5114963;28;20851;-60
2023/03/04 10:01:49;;;;;;;0.80;0.80;;;;;;;11.30;93.02;95265.59;5114644;28;20430;-60
2023/03/04 10:04:25;;;;;;;0.83;0.83;;;;;;;11.21;94.23;95259.25;5114282;28;20518;-60
2023/03/04 10:06:56;;;;;;;1.00;0.90;;;;;;;11.62;91.98;95277.59;5114582;28;20983;-60
2023/03/04 10:09:28;;;;;;;0.43;0.40;;;;;;;11.87;91.41;95261.50;5114632;28;20874;-60
2023/03/04 10:12:02;;;;;;;1.37;0.87;;;;;;;11.95;91.29;95264.34;5114296;28;20431;-60
2023/03/04 10:14:37;;;;;;;0.53;0.53;;;;;;;12.20;91.88;95246.59;5114387;28;20411;-60
2023/03/04 10:17:15;;;;;;;6.73;1.67;;;;;;;12.33;84.83;95241.41;5114087;28;20442;-61
2023/03/04 10:19:56;;;;;;;2.03;0.70;;;;;;;12.73;80.40;95253.47;5114203;28;20420;-60
2023/03/04 10:22:33;;;;;;;0.53;0.53;;;;;;;11.20;79.65;95095.09;5114405;28;20428;-60
2023/03/04 10:25:16;;;;;;;2.40;0.90;;;;;;;11.36;83.05;95242.44;5114533;28;20447;-61
2023/03/04 10:27:50;;;;;;;0.93;0.93;;;;;;;10.97;83.64;95194.69;5114321;28;21002;-61
2023/03/04 10:30:30;;;;;;;0.40;0.30;;;;;;;11.65;82.97;95247.84;5114843;28;20420;-61
2023/03/04 10:32:58;;;;;;;2.30;2.10;;;;;;;11.73;82.09;95241.97;5114424;28;20842;-61
2023/03/04 10:35:36;;;;;;;0.63;0.63;;;;;;;10.87;84.48;95229.22;5114104;28;20436;-60
2023/03/04 10:38:07;;;;;;;0.67;0.67;;;;;;;11.03;83.83;95225.41;5113733;28;20865;-60
2023/03/04 10:40:39;;;;;;;0.70;0.70;;;;;;;11.81;81.61;95231.56;5113938;28;20424;-61
2023/03/04 10:43:15;;;;;;;0.53;0.53;;;;;;;11.91;82.52;95238.63;5113912;28;20924;-60
2023/03/04 10:45:44;;;;;;;0.53;0.47;;;;;;;11.63;83.38;95237.50;5113294;28;20424;-60
2023/03/04 10:48:21;;;;;;;0.90;0.90;;;;;;;11.30;84.28;95241.72;5112661;28;20471;-60
2023/03/04 10:50:50;;;;;;;0.40;0.30;;;;;;;11.54;86.64;95225.09;5113970;28;20478;-60
2023/03/04 10:53:32;;;;;;;0.40;0.40;;;;;;;11.66;86.30;95229.00;5113723;28;20434;-60
2023/03/04 10:56:01;;;;;;;0.40;0.30;;;;;;;11.31;84.41;95224.72;5113743;28;20485;-60
2023/03/04 10:58:30;;;;;;;0.67;0.67;;;;;;;11.89;83.40;95227.50;5113513;28;20475;-60
2023/03/04 11:01:04;;;;;;;0.50;0.50;;;;;;;11.97;84.22;95218.91;5113673;28;20436;-60
2023/03/04 11:03:35;;;;;;;0.93;0.40;;;;;;;11.77;83.60;95213.78;5113321;28;20435;-60
2023/03/04 11:06:06;;;;;;;0.50;0.50;;;;;;;11.87;85.93;95205.72;5112867;28;20613;-60
2023/03/04 11:08:36;;;;;;;0.50;0.30;;;;;;;11.65;87.27;95195.53;5113202;28;20519;-60
2023/03/04 11:11:21;;;;;;;7.23;1.23;;;;;;;11.79;87.35;95195.72;5113427;28;20531;-60
2023/03/04 11:13:56;;;;;;;0.40;0.40;;;;;;;11.29;89.51;95194.22;5113198;28;20477;-60
2023/03/04 11:16:27;;;;;;;0.50;0.50;;;;;;;11.57;91.80;95185.50;5113498;28;20428;-60
2023/03/04 11:19:00;;;;;;;0.30;0.20;;;;;;;11.93;89.56;95181.50;5113218;28;20473;-59
2023/03/04 11:21:31;;;;;;;1.83;1.80;;;;;;;11.78;90.23;95186.16;5112962;28;20909;-60
2023/03/04 11:24:03;;;;;;;0.80;0.80;;;;;;;11.86;88.66;95180.25;5112938;28;20426;-59
2023/03/04 11:26:39;;;;;;;1.27;0.63;;;;;;;12.00;88.16;95168.69;5112804;28;20467;-60
2023/03/04 11:29:14;;;;;;;0.50;0.50;;;;;;;11.70;91.51;95168.97;5112005;28;20461;-60
2023/03/04 11:31:49;;;;;;;0.73;0.73;;;;;;;12.31;88.33;95157.72;5113248;28;20419;-60
2023/03/04 11:34:34;;;;;;;2.03;0.73;;;;;;;12.72;88.97;95162.25;5113166;28;20463;-60
2023/03/04 11:37:06;;;;;;;0.60;0.60;;;;;;;12.53;86.53;95156.13;5113184;28;20463;-60
2023/03/04 11:39:38;;;;;;;0.93;0.93;;;;;;;11.46;89.48;95160.91;5112647;28;20431;-60
2023/03/04 11:42:17;;;;;;;0.53;0.30;;;;;;;12.06;90.35;95156.94;5112699;28;20507;-61
2023/03/04 11:44:45;;;;;;;1.03;0.90;;;;;;;12.16;88.76;95136.66;5112570;28;20519;-60
2023/03/04 11:47:27;;;;;;;1.30;1.20;;;;;;;12.60;87.61;95156.56;5112495;28;20555;-60